Current Weather

Brize Norton

Brize Norton, United Kingdom (EGVN)

Report from: Monday, September 26, 2022 2:50 AM BST
Current time: Monday, September 26, 2022 3:07 AM BST

Nearby weather
Weather history
Weather forecast

Present weatherLight rain, rain
Temperature13.0°C (55.4°F)
Dew point10.0°C (50.0°F)
Winds 8 kts (4.1 m/s, 9.2 mph) West-Southwest (240°)
Visibility6.2 mi. (10 km)
Clouds Few clouds 1,600 ft. (488 m)
Ceiling: Broken clouds 1,600 ft. (488 m)
Broken clouds 2,800 ft. (853 m)
Altimeter29.68 in.Hg (1005 mB)
Relative humidity82 %
Density altitude217 ft. (66 m)
Remarks Temporarily
Flight conditions Marginal Visual Meteorological Conditions
Raw dataEGVN 260150Z 24008KT 9999 -RA FEW016 BKN028 13/10 Q1005 TEMPO 6000 RA BKN016 RMK BLU TEMPO WHT
An error has occurred. This application may no longer respond until reloaded. Reload 🗙